Time;durP1;ratioP1;P1;durP2;ratioP2;P2;SDS_P1;SDS_P2;PMS_P1;PMS_P2;Temp;Humidity;BMP_temperature;BMP_pressure;BME280_temperature;BME280_humidity;BME280_pressure;Samples;Min_cycle;Max_cycle;Signal;HPM_P1;HPM_P2
2021/07/13 00:01:11;;;;;;;10.15;8.95;;;;;;;19.54;86.77;97311.69;4953377;28;20037;-75
2021/07/13 00:03:37;;;;;;;10.50;8.20;;;;;;;19.50;87.63;97322.03;4951826;28;20065;-74
2021/07/13 00:06:03;;;;;;;10.68;8.32;;;;;;;19.43;88.03;97307.38;4952011;29;20038;-74
2021/07/13 00:08:29;;;;;;;14.02;8.57;;;;;;;19.40;88.28;97318.56;4968091;28;20035;-74
2021/07/13 00:10:55;;;;;;;15.00;8.75;;;;;;;19.36;88.66;97306.25;4951929;28;20034;-75
2021/07/13 00:13:20;;;;;;;15.70;8.93;;;;;;;19.33;89.10;97321.00;4951868;29;20114;-73
2021/07/13 00:15:46;;;;;;;11.85;8.80;;;;;;;19.29;89.40;97313.31;4951702;29;20129;-75
2021/07/13 00:18:12;;;;;;;15.25;8.63;;;;;;;19.28;89.47;97314.34;4968187;28;20520;-75
2021/07/13 00:20:38;;;;;;;14.60;9.00;;;;;;;19.25;89.81;97320.06;4951724;29;20093;-75
2021/07/13 00:23:04;;;;;;;13.02;9.38;;;;;;;19.23;90.43;97316.63;4936020;29;20118;-75
2021/07/13 00:25:31;;;;;;;12.13;8.68;;;;;;;19.26;90.05;97321.75;4951636;29;20042;-75
2021/07/13 00:27:57;;;;;;;15.02;9.18;;;;;;;19.15;91.45;97313.84;4951814;29;20031;-75
2021/07/13 00:30:24;;;;;;;11.82;8.50;;;;;;;19.19;91.55;97316.13;4967778;28;20086;-75
2021/07/13 00:32:50;;;;;;;12.48;9.10;;;;;;;19.13;92.26;97318.59;4967746;28;20114;-75
2021/07/13 00:35:16;;;;;;;12.13;9.32;;;;;;;19.11;92.88;97324.16;4947017;28;20123;-74
2021/07/13 00:37:42;;;;;;;11.65;9.05;;;;;;;19.08;93.07;97323.59;4932030;29;20035;-75
2021/07/13 00:40:09;;;;;;;12.55;8.73;;;;;;;19.00;93.20;97321.66;4958290;29;20552;-75
2021/07/13 00:42:34;;;;;;;14.75;9.00;;;;;;;18.93;94.10;97316.00;4957943;28;20483;-75
2021/07/13 00:45:00;;;;;;;10.48;8.77;;;;;;;18.85;94.74;97321.34;4958203;28;20031;-75
2021/07/13 00:47:27;;;;;;;12.27;9.63;;;;;;;18.82;95.52;97318.94;4958015;29;20570;-75
2021/07/13 00:49:53;;;;;;;12.23;9.50;;;;;;;18.74;95.51;97320.66;4957831;28;20034;-75
2021/07/13 00:52:19;;;;;;;12.82;9.00;;;;;;;18.70;96.78;97324.69;4958046;28;20023;-74
2021/07/13 00:54:47;;;;;;;14.00;9.48;;;;;;;18.71;96.31;97323.69;4957945;28;20031;-75
2021/07/13 00:57:13;;;;;;;15.60;9.32;;;;;;;18.63;95.61;97312.75;4974314;28;20402;-75
2021/07/13 00:59:40;;;;;;;12.57;9.60;;;;;;;18.64;96.43;97320.72;4974176;28;20035;-76
2021/07/13 01:02:07;;;;;;;12.20;9.77;;;;;;;18.58;96.85;97328.63;4957832;28;20595;-75
2021/07/13 01:04:35;;;;;;;11.57;9.18;;;;;;;18.61;96.98;97331.84;4957810;28;20042;-76
2021/07/13 01:07:05;;;;;;;12.48;9.85;;;;;;;18.65;97.01;97332.41;4957803;29;20039;-75
2021/07/13 01:09:44;;;;;;;16.90;10.45;;;;;;;18.69;97.05;97331.97;4957878;28;20094;-75
2021/07/13 01:12:31;;;;;;;12.38;9.43;;;;;;;18.67;96.26;97325.81;4974149;28;20502;-75
2021/07/13 01:14:58;;;;;;;14.48;10.10;;;;;;;18.61;97.03;97326.44;4958868;29;20129;-75
2021/07/13 01:17:48;;;;;;;19.15;10.15;;;;;;;18.61;97.15;97321.00;4973985;28;20035;-75
2021/07/13 01:20:51;;;;;;;12.77;9.68;;;;;;;18.71;96.65;97323.69;4990070;28;20042;-75
2021/07/13 01:23:25;;;;;;;18.25;9.65;;;;;;;18.72;95.89;97311.84;4973828;28;20046;-75
2021/07/13 01:26:10;;;;;;;12.60;9.45;;;;;;;18.69;95.39;97312.16;4958888;28;20599;-75
2021/07/13 01:28:42;;;;;;;15.52;9.65;;;;;;;18.65;95.44;97306.16;4974123;28;20395;-75
2021/07/13 01:31:16;;;;;;;14.25;9.30;;;;;;;18.64;96.04;97309.88;4957845;29;20062;-75
2021/07/13 01:33:45;;;;;;;13.52;9.70;;;;;;;18.69;96.37;97323.84;4957297;29;20555;-75
2021/07/13 01:36:41;;;;;;;14.32;10.57;;;;;;;18.71;96.22;97320.97;4957674;28;20137;-75
2021/07/13 01:39:07;;;;;;;16.73;9.52;;;;;;;18.68;96.39;97327.53;4940764;29;20447;-75
2021/07/13 01:41:33;;;;;;;12.93;9.65;;;;;;;18.66;96.81;97315.16;4973753;28;20035;-75
2021/07/13 01:43:59;;;;;;;15.80;10.80;;;;;;;18.66;97.22;97332.28;4973331;28;20162;-74
2021/07/13 01:46:26;;;;;;;18.98;11.68;;;;;;;18.61;97.79;97331.84;4957634;28;20038;-75
2021/07/13 01:48:54;;;;;;;16.63;11.50;;;;;;;18.55;98.28;97329.75;4970069;28;20027;-75
2021/07/13 01:51:20;;;;;;;19.05;11.88;;;;;;;18.49;98.60;97324.91;4954498;28;20110;-75
2021/07/13 01:53:47;;;;;;;16.73;11.25;;;;;;;18.53;98.47;97328.19;4930473;29;20027;-77
2021/07/13 01:56:13;;;;;;;17.05;10.65;;;;;;;18.51;98.40;97320.22;4970717;28;20105;-75
2021/07/13 01:58:40;;;;;;;17.13;10.65;;;;;;;18.49;97.63;97321.34;4954290;28;20058;-75
2021/07/13 02:01:11;;;;;;;15.80;9.70;;;;;;;18.43;97.92;97320.06;4954082;28;20091;-75
2021/07/13 02:03:38;;;;;;;13.48;10.80;;;;;;;18.38;98.39;97320.53;4970257;28;20029;-75
2021/07/13 02:06:04;;;;;;;14.07;11.13;;;;;;;18.33;99.47;97324.69;4954102;28;20066;-75
2021/07/13 02:08:30;;;;;;;15.98;10.88;;;;;;;18.27;100.00;97319.88;4946692;29;20061;-75
2021/07/13 02:10:56;;;;;;;14.27;11.25;;;;;;;18.20;100.00;97318.75;4953752;29;20123;-75
2021/07/13 02:13:22;;;;;;;16.55;10.70;;;;;;;18.11;100.00;97319.63;4970512;28;20115;-75
2021/07/13 02:15:47;;;;;;;16.10;10.82;;;;;;;18.13;100.00;97310.34;4970069;28;20470;-76
2021/07/13 02:18:14;;;;;;;26.77;11.02;;;;;;;18.11;100.00;97312.38;4954131;29;20027;-75
2021/07/13 02:20:39;;;;;;;17.40;10.52;;;;;;;18.17;100.00;97316.34;4953840;29;20023;-75
2021/07/13 02:23:06;;;;;;;14.32;10.35;;;;;;;18.07;100.00;97302.81;4950546;29;20034;-75
2021/07/13 02:25:32;;;;;;;16.08;10.48;;;;;;;18.19;100.00;97320.59;4950716;29;20494;-76
2021/07/13 02:28:16;;;;;;;15.80;10.75;;;;;;;18.07;100.00;97304.69;4952738;29;20115;-75
2021/07/13 02:30:48;;;;;;;14.82;10.43;;;;;;;18.05;100.00;97312.97;4954011;28;20088;-75
2021/07/13 02:33:17;;;;;;;15.33;10.57;;;;;;;17.98;100.00;97306.41;4946341;28;20023;-76
2021/07/13 02:35:52;;;;;;;18.92;11.50;;;;;;;17.90;100.00;97313.56;4970024;28;20043;-75
2021/07/13 02:38:19;;;;;;;27.10;12.18;;;;;;;17.81;100.00;97307.19;4953663;28;20031;-75
2021/07/13 02:40:47;;;;;;;36.60;16.08;;;;;;;17.84;100.00;97320.41;4953630;29;20031;-75
2021/07/13 02:43:13;;;;;;;22.60;13.05;;;;;;;17.76;100.00;97323.84;4921900;29;20062;-75
2021/07/13 02:45:41;;;;;;;18.30;11.43;;;;;;;17.65;100.00;97312.34;4953693;29;20027;-75
2021/07/13 02:48:07;;;;;;;17.67;11.10;;;;;;;17.64;100.00;97313.31;4953494;28;20065;-75
2021/07/13 02:50:33;;;;;;;19.15;11.05;;;;;;;17.64;100.00;97318.72;4953246;29;20026;-76
2021/07/13 02:52:59;;;;;;;17.05;11.98;;;;;;;17.63;100.00;97323.28;4953226;28;20558;-76
2021/07/13 02:55:25;;;;;;;22.02;11.43;;;;;;;17.61;100.00;97317.16;4937689;29;20031;-76
2021/07/13 02:57:53;;;;;;;18.92;11.52;;;;;;;17.64;100.00;97319.59;4921430;29;20028;-76
2021/07/13 03:00:20;;;;;;;18.60;12.18;;;;;;;17.63;100.00;97317.00;4937540;29;20038;-76
2021/07/13 03:02:46;;;;;;;22.30;11.32;;;;;;;17.70;100.00;97324.41;4969692;28;20505;-75
2021/07/13 03:05:19;;;;;;;16.63;11.27;;;;;;;17.69;100.00;97329.97;4952945;28;20043;-75
2021/07/13 03:07:46;;;;;;;17.67;11.15;;;;;;;17.70;100.00;97324.41;4953265;28;20472;-75
2021/07/13 03:10:12;;;;;;;21.85;11.68;;;;;;;17.76;100.00;97326.53;4953144;28;20043;-75
2021/07/13 03:12:38;;;;;;;20.27;11.60;;;;;;;17.83;100.00;97327.69;4953087;29;20098;-75
2021/07/13 03:15:06;;;;;;;16.77;10.90;;;;;;;17.94;100.00;97334.78;4953087;28;20447;-75
2021/07/13 03:17:32;;;;;;;19.15;10.80;;;;;;;17.99;100.00;97326.22;4954345;28;20041;-75
2021/07/13 03:19:58;;;;;;;24.95;10.73;;;;;;;18.00;100.00;97308.97;4968647;28;20469;-75
2021/07/13 03:22:31;;;;;;;17.95;10.95;;;;;;;18.12;100.00;97329.47;4952807;28;20039;-75
2021/07/13 03:24:58;;;;;;;12.45;9.80;;;;;;;18.13;100.00;97329.31;4949734;29;20063;-75
2021/07/13 03:27:24;;;;;;;15.20;10.93;;;;;;;18.12;99.89;97324.06;4969088;28;20035;-75
2021/07/13 03:29:51;;;;;;;22.80;11.40;;;;;;;18.15;99.36;97326.47;4969082;28;20053;-75
2021/07/13 03:32:17;;;;;;;24.88;10.93;;;;;;;18.16;99.25;97322.75;4969046;28;20031;-75
2021/07/13 03:34:44;;;;;;;15.77;9.75;;;;;;;18.19;98.73;97323.31;4952426;29;20031;-76
2021/07/13 03:37:10;;;;;;;18.75;11.20;;;;;;;18.25;98.33;97321.84;4968761;28;20035;-76
2021/07/13 03:39:37;;;;;;;16.42;11.10;;;;;;;18.31;98.75;97321.25;4952981;29;20050;-76
2021/07/13 03:42:03;;;;;;;19.55;10.90;;;;;;;18.47;98.17;97335.03;4968588;28;20035;-76
2021/07/13 03:44:29;;;;;;;21.30;12.15;;;;;;;18.57;99.12;97338.59;4984971;28;20029;-75
2021/07/13 03:46:55;;;;;;;28.90;12.45;;;;;;;18.67;97.80;97336.66;4953819;28;20028;-76
2021/07/13 03:49:23;;;;;;;19.95;11.80;;;;;;;18.65;96.49;97343.25;4952541;29;20027;-75
2021/07/13 03:51:49;;;;;;;38.10;11.60;;;;;;;18.61;95.72;97339.97;4968916;28;20023;-75
2021/07/13 03:54:16;;;;;;;26.90;12.27;;;;;;;18.60;95.02;97343.72;4952249;29;20415;-75
2021/07/13 03:56:43;;;;;;;24.13;12.27;;;;;;;18.60;95.03;97340.16;4952205;28;20038;-75
2021/07/13 03:59:09;;;;;;;21.80;12.82;;;;;;;18.55;96.13;97339.75;4952257;28;20114;-75
2021/07/13 04:01:35;;;;;;;22.70;13.05;;;;;;;18.63;96.46;97335.28;4952123;29;20073;-75
2021/07/13 04:04:01;;;;;;;25.80;13.82;;;;;;;18.60;96.99;97335.59;4952257;29;20112;-77
2021/07/13 04:06:27;;;;;;;27.50;14.02;;;;;;;18.62;96.27;97339.00;4952250;29;20069;-76
2021/07/13 04:08:52;;;;;;;29.50;14.13;;;;;;;18.65;95.56;97337.81;4984668;28;20056;-76
2021/07/13 04:11:18;;;;;;;27.73;12.88;;;;;;;18.81;94.28;97333.47;4951423;28;20031;-76
2021/07/13 04:13:44;;;;;;;26.38;14.10;;;;;;;18.80;94.07;97341.75;4952113;28;20023;-74
2021/07/13 04:16:10;;;;;;;25.00;13.95;;;;;;;18.90;93.71;97332.56;4951599;29;20050;-74
2021/07/13 04:18:36;;;;;;;22.63;12.77;;;;;;;19.03;92.96;97334.06;4952144;28;20036;-75
2021/07/13 04:21:01;;;;;;;17.45;12.55;;;;;;;19.15;92.69;97332.84;4968237;28;20719;-75
2021/07/13 04:23:27;;;;;;;21.83;12.75;;;;;;;19.15;92.12;97319.28;4951546;29;20074;-74
2021/07/13 04:25:53;;;;;;;19.05;13.00;;;;;;;19.19;91.66;97317.97;4951931;28;20027;-74
2021/07/13 04:28:18;;;;;;;23.67;13.68;;;;;;;19.32;91.08;97326.56;4935663;29;20110;-78
2021/07/13 04:30:44;;;;;;;34.88;13.02;;;;;;;19.44;90.58;97317.25;4951928;28;20023;-87
2021/07/13 04:33:10;;;;;;;21.67;13.63;;;;;;;19.53;89.89;97313.59;4951710;28;20090;-83
2021/07/13 04:35:35;;;;;;;21.70;12.65;;;;;;;19.66;90.05;97319.44;4951670;29;20051;-76
2021/07/13 04:38:01;;;;;;;32.50;12.13;;;;;;;19.78;89.53;97334.47;4951876;29;20122;-76
2021/07/13 04:40:27;;;;;;;48.55;29.02;;;;;;;19.88;88.18;97323.53;4951656;28;20194;-77
2021/07/13 04:42:52;;;;;;;30.80;13.35;;;;;;;19.95;88.17;97306.47;4951464;29;20035;-77
2021/07/13 04:45:18;;;;;;;24.98;13.10;;;;;;;20.12;86.69;97326.41;4951512;28;20178;-76
2021/07/13 04:47:44;;;;;;;23.20;13.35;;;;;;;20.25;86.55;97326.84;4951776;29;20122;-76
2021/07/13 04:50:10;;;;;;;30.48;12.15;;;;;;;20.39;84.83;97326.31;4967696;28;20035;-77
2021/07/13 04:52:35;;;;;;;25.80;12.43;;;;;;;20.56;84.35;97321.78;4951381;29;20034;-75
2021/07/13 04:55:01;;;;;;;18.77;12.73;;;;;;;20.81;83.05;97328.19;4951608;29;20423;-75
2021/07/13 04:57:27;;;;;;;16.98;11.93;;;;;;;21.24;80.25;97325.31;4935726;29;20035;-75
2021/07/13 04:59:53;;;;;;;20.15;12.25;;;;;;;22.19;74.87;97321.09;4967760;28;20024;-75
2021/07/13 05:02:20;;;;;;;29.33;17.15;;;;;;;23.20;69.50;97332.03;4951369;29;20039;-77
2021/07/13 05:04:45;;;;;;;23.52;12.85;;;;;;;24.25;65.20;97341.38;4951540;29;20499;-75
2021/07/13 05:07:11;;;;;;;19.05;11.25;;;;;;;26.07;58.31;97341.28;4951209;28;20038;-76
2021/07/13 05:09:36;;;;;;;18.88;10.45;;;;;;;27.94;52.29;97348.31;4935578;29;20495;-76
2021/07/13 05:12:02;;;;;;;17.77;11.00;;;;;;;29.30;47.06;97347.66;4935466;29;20168;-76
2021/07/13 05:14:28;;;;;;;17.65;11.65;;;;;;;29.65;46.17;97353.66;4951197;29;20046;-75
2021/07/13 05:16:54;;;;;;;21.90;10.52;;;;;;;30.59;43.79;97354.56;4951614;29;20053;-76
2021/07/13 05:19:19;;;;;;;18.83;10.57;;;;;;;30.96;42.29;97351.91;4951250;28;20027;-76
2021/07/13 05:21:49;;;;;;;17.77;10.80;;;;;;;31.77;40.34;97346.09;4951345;28;20478;-76
2021/07/13 05:24:15;;;;;;;20.50;10.40;;;;;;;32.43;39.36;97346.78;4953514;29;20031;-76
2021/07/13 05:26:41;;;;;;;18.67;10.60;;;;;;;33.40;37.35;97344.47;4971252;28;20038;-76
2021/07/13 05:29:07;;;;;;;17.05;10.60;;;;;;;33.86;36.59;97351.84;4971067;28;20035;-77
2021/07/13 05:31:33;;;;;;;43.28;11.50;;;;;;;34.64;34.66;97341.66;4954942;28;20039;-76
2021/07/13 05:34:00;;;;;;;34.30;10.07;;;;;;;35.56;32.99;97339.22;4956273;28;20023;-76
2021/07/13 05:36:26;;;;;;;36.60;13.07;;;;;;;35.90;32.56;97354.69;4938869;28;20430;-76
2021/07/13 05:38:55;;;;;;;21.50;12.82;;;;;;;36.83;31.35;97345.06;4954812;29;20041;-76
2021/07/13 05:41:22;;;;;;;27.85;11.88;;;;;;;36.60;31.81;97345.44;4939091;29;20517;-76
2021/07/13 05:43:48;;;;;;;23.17;11.90;;;;;;;37.46;30.53;97334.94;4955571;28;20107;-77
2021/07/13 05:46:14;;;;;;;32.15;20.75;;;;;;;37.63;29.64;97343.13;4954706;29;20031;-77
2021/07/13 05:48:40;;;;;;;23.42;10.90;;;;;;;38.20;29.24;97345.88;4938546;28;20034;-76
2021/07/13 05:51:05;;;;;;;20.65;10.88;;;;;;;38.75;28.35;97342.34;4962953;28;20035;-77
2021/07/13 05:53:33;;;;;;;21.20;11.27;;;;;;;39.34;27.79;97342.63;4954268;29;20034;-75
2021/07/13 05:55:58;;;;;;;19.50;12.63;;;;;;;38.43;28.06;97342.59;4954595;29;20023;-77
2021/07/13 05:58:24;;;;;;;23.63;13.88;;;;;;;37.56;29.50;97348.97;4954520;29;20046;-75
2021/07/13 06:00:50;;;;;;;29.42;12.82;;;;;;;35.55;32.46;97359.78;4954259;29;20035;-74
2021/07/13 06:03:15;;;;;;;20.73;13.68;;;;;;;36.60;31.11;97356.59;4938409;29;20036;-74
2021/07/13 06:05:41;;;;;;;19.75;12.32;;;;;;;35.16;33.07;97350.59;4970436;28;20023;-74
2021/07/13 06:08:06;;;;;;;22.13;12.43;;;;;;;35.36;32.74;97355.63;4938780;29;20415;-75
2021/07/13 06:10:35;;;;;;;36.67;11.85;;;;;;;35.42;32.81;97356.53;4938100;28;20031;-74
2021/07/13 06:13:00;;;;;;;24.63;12.13;;;;;;;36.19;31.68;97357.25;4954476;28;20566;-75
2021/07/13 06:15:26;;;;;;;16.25;11.60;;;;;;;37.55;29.64;97352.88;4955250;28;20106;-77
2021/07/13 06:17:52;;;;;;;13.52;10.88;;;;;;;38.59;28.22;97355.47;4970283;28;20109;-75
2021/07/13 06:20:17;;;;;;;16.65;10.18;;;;;;;39.04;27.42;97349.91;4970733;28;20079;-75
2021/07/13 06:22:43;;;;;;;17.40;10.50;;;;;;;39.45;26.72;97347.06;4954166;28;20027;-76
2021/07/13 06:25:09;;;;;;;19.48;9.88;;;;;;;39.60;26.54;97346.16;4938155;29;20443;-75
2021/07/13 06:27:35;;;;;;;16.98;10.23;;;;;;;39.11;26.89;97341.22;4953604;29;20034;-77
2021/07/13 06:30:01;;;;;;;16.95;10.38;;;;;;;37.94;29.24;97347.75;4938086;29;20082;-76
2021/07/13 06:32:27;;;;;;;19.75;9.68;;;;;;;38.58;28.61;97351.00;4953914;29;20031;-76
2021/07/13 06:34:52;;;;;;;30.00;10.43;;;;;;;39.83;26.72;97352.00;4921500;29;20027;-76
2021/07/13 06:37:18;;;;;;;17.80;9.18;;;;;;;40.97;25.08;97339.56;4965987;28;20069;-76
2021/07/13 06:39:44;;;;;;;26.42;11.00;;;;;;;41.07;24.91;97344.25;4953786;28;20035;-75
2021/07/13 06:42:09;;;;;;;12.75;8.48;;;;;;;40.79;24.79;97334.66;4953521;29;20038;-75
2021/07/13 06:44:35;;;;;;;14.93;8.00;;;;;;;41.52;23.98;97328.91;4953564;29;20070;-76
2021/07/13 06:47:00;;;;;;;16.48;8.90;;;;;;;41.17;25.28;97329.25;4970104;28;20573;-76
2021/07/13 06:49:26;;;;;;;12.73;8.52;;;;;;;39.46;26.89;97335.59;4953169;28;20039;-75
2021/07/13 06:51:51;;;;;;;21.48;8.70;;;;;;;39.37;26.54;97330.84;4953657;29;20031;-75
2021/07/13 06:54:17;;;;;;;18.15;8.45;;;;;;;40.26;25.93;97338.34;4970181;28;20035;-76
2021/07/13 06:56:42;;;;;;;15.90;8.10;;;;;;;41.15;25.26;97334.34;4937497;29;20034;-76
2021/07/13 06:59:08;;;;;;;22.17;9.23;;;;;;;41.06;24.89;97332.19;4953474;29;20403;-75
2021/07/13 07:01:33;;;;;;;12.80;9.00;;;;;;;40.96;25.03;97326.66;4969472;28;20027;-76
2021/07/13 07:03:59;;;;;;;20.23;10.32;;;;;;;42.14;24.05;97320.28;4969484;28;20459;-75
2021/07/13 07:06:25;;;;;;;32.33;12.40;;;;;;;41.59;24.96;97318.16;4953217;28;20070;-76
2021/07/13 07:08:50;;;;;;;23.73;9.70;;;;;;;41.11;24.53;97311.63;4952889;29;20518;-76
2021/07/13 07:11:17;;;;;;;29.30;11.63;;;;;;;41.81;24.22;97320.44;4954178;29;20027;-75
2021/07/13 07:13:42;;;;;;;22.63;17.42;;;;;;;41.44;24.71;97321.97;4969123;28;20149;-75
2021/07/13 07:16:09;;;;;;;20.38;9.05;;;;;;;41.36;25.10;97314.19;4953149;28;20023;-75
2021/07/13 07:18:35;;;;;;;11.18;8.57;;;;;;;41.31;24.80;97314.22;4952834;28;20058;-76
2021/07/13 07:21:00;;;;;;;22.77;9.00;;;;;;;42.35;24.14;97315.19;4953012;29;20066;-75
2021/07/13 07:23:26;;;;;;;18.45;8.50;;;;;;;43.19;23.43;97319.72;4952793;29;20089;-75
2021/07/13 07:25:51;;;;;;;20.17;9.00;;;;;;;42.68;23.95;97308.50;4952803;29;20167;-75
2021/07/13 07:28:17;;;;;;;14.85;7.93;;;;;;;42.18;24.11;97309.25;4937333;29;20020;-75
2021/07/13 07:30:43;;;;;;;17.30;9.20;;;;;;;42.66;24.27;97316.44;4937139;29;20509;-75
2021/07/13 07:33:08;;;;;;;17.25;8.15;;;;;;;42.16;24.00;97306.72;4968957;28;20026;-75
2021/07/13 07:35:34;;;;;;;15.23;7.80;;;;;;;40.44;25.80;97309.63;4952455;29;20047;-75
2021/07/13 07:38:00;;;;;;;22.67;8.40;;;;;;;42.60;23.77;97302.75;4968986;28;20035;-75
2021/07/13 07:40:27;;;;;;;12.52;7.95;;;;;;;43.17;23.10;97298.66;4968736;28;21126;-75
2021/07/13 07:42:53;;;;;;;20.13;9.98;;;;;;;43.73;22.87;97306.88;4936763;29;20091;-75
2021/07/13 07:45:20;;;;;;;42.72;10.02;;;;;;;42.91;23.34;97300.25;4951933;28;20034;-76
2021/07/13 07:47:47;;;;;;;18.77;8.25;;;;;;;40.96;25.25;97298.56;4968120;28;20068;-75
2021/07/13 07:50:14;;;;;;;10.68;8.25;;;;;;;40.87;25.01;97291.88;4984876;28;20122;-76
2021/07/13 07:52:40;;;;;;;24.80;8.75;;;;;;;41.30;24.97;97287.25;4984508;28;20510;-75
2021/07/13 07:55:07;;;;;;;14.73;8.75;;;;;;;41.61;25.11;97290.59;4952700;28;20514;-75
2021/07/13 07:57:32;;;;;;;31.15;9.10;;;;;;;42.79;23.60;97291.44;4984794;28;20118;-75
2021/07/13 07:59:58;;;;;;;21.77;7.85;;;;;;;44.07;22.36;97296.00;4968249;28;20166;-75
2021/07/13 08:02:23;;;;;;;13.63;7.88;;;;;;;44.04;22.02;97279.72;4952128;29;20035;-75
2021/07/13 08:04:49;;;;;;;10.23;8.32;;;;;;;44.57;21.44;97287.56;4952108;29;20121;-77
2021/07/13 08:07:15;;;;;;;36.33;9.65;;;;;;;45.93;20.53;97277.38;4933089;29;20086;-77
2021/07/13 08:09:40;;;;;;;13.02;8.10;;;;;;;45.50;20.73;97282.88;4933002;28;20034;-77
2021/07/13 08:12:06;;;;;;;15.95;8.13;;;;;;;45.68;21.42;97281.78;4936170;29;20384;-76
2021/07/13 08:14:32;;;;;;;15.30;8.40;;;;;;;45.64;21.80;97277.91;4935955;29;20050;-76
2021/07/13 08:16:57;;;;;;;16.48;8.45;;;;;;;46.11;21.39;97276.25;4951723;28;20065;-77
2021/07/13 08:19:23;;;;;;;16.23;8.23;;;;;;;45.62;20.60;97268.94;4936262;29;20058;-77
2021/07/13 08:21:48;;;;;;;12.10;7.53;;;;;;;45.40;20.52;97258.53;4951713;29;20031;-76
2021/07/13 08:24:14;;;;;;;13.73;8.05;;;;;;;45.35;19.47;97257.84;4952838;28;20027;-76
2021/07/13 08:26:40;;;;;;;14.45;7.28;;;;;;;44.55;20.51;97262.44;4968049;28;20106;-76
2021/07/13 08:29:06;;;;;;;14.95;7.60;;;;;;;45.25;20.82;97256.94;4943460;29;20098;-76
2021/07/13 08:31:31;;;;;;;12.10;7.93;;;;;;;44.28;19.99;97244.75;4951914;29;20083;-76
2021/07/13 08:33:57;;;;;;;14.82;7.43;;;;;;;46.07;19.57;97256.28;4951351;29;20022;-76
2021/07/13 08:36:23;;;;;;;13.73;6.90;;;;;;;47.36;17.87;97247.69;4967819;28;20053;-76
2021/07/13 08:38:48;;;;;;;120.22;11.48;;;;;;;46.48;17.95;97243.69;4919157;28;20027;-77
2021/07/13 08:41:17;;;;;;;16.65;9.43;;;;;;;46.52;18.19;97239.03;4936158;29;20094;-77
2021/07/13 08:43:42;;;;;;;18.25;8.15;;;;;;;47.23;17.32;97248.72;4935841;29;20111;-75
2021/07/13 08:46:08;;;;;;;12.02;7.22;;;;;;;47.45;18.29;97239.97;4935988;29;20078;-74
2021/07/13 08:48:39;;;;;;;35.80;8.68;;;;;;;46.89;17.69;97235.47;4936179;29;20404;-75
2021/07/13 08:51:06;;;;;;;16.30;7.20;;;;;;;46.35;18.65;97234.16;4951478;28;20039;-75
2021/07/13 08:53:31;;;;;;;14.60;7.75;;;;;;;45.81;18.57;97226.25;4951327;29;20023;-75
2021/07/13 08:56:00;;;;;;;7.82;6.95;;;;;;;46.87;17.99;97234.97;4967600;28;20086;-75
2021/07/13 08:58:28;;;;;;;8.82;7.32;;;;;;;47.52;17.04;97233.78;4922617;29;20039;-76
2021/07/13 09:00:54;;;;;;;21.73;7.75;;;;;;;48.17;17.31;97236.94;4987538;28;20023;-76
2021/07/13 09:03:21;;;;;;;10.30;7.07;;;;;;;48.99;16.42;97238.06;4987670;28;20499;-76
2021/07/13 09:05:59;;;;;;;14.43;7.78;;;;;;;48.92;16.01;97234.94;4971494;28;20089;-77
2021/07/13 09:08:30;;;;;;;12.75;8.02;;;;;;;48.76;15.96;97236.78;4939894;29;20038;-76
2021/07/13 09:11:17;;;;;;;10.20;7.45;;;;;;;47.68;17.93;97244.22;4971127;28;20031;-76
2021/07/13 09:13:59;;;;;;;14.95;8.18;;;;;;;48.89;16.66;97244.16;4954880;29;20023;-76
2021/07/13 09:16:26;;;;;;;20.60;8.52;;;;;;;48.98;16.32;97239.25;4970847;28;20027;-76
2021/07/13 09:18:56;;;;;;;16.17;8.07;;;;;;;47.26;17.56;97237.53;4922876;29;20027;-76
2021/07/13 09:21:35;;;;;;;14.98;8.15;;;;;;;47.69;16.68;97240.19;4987383;28;20027;-76
2021/07/13 09:24:05;;;;;;;10.88;7.47;;;;;;;46.57;17.35;97217.00;4956112;29;20480;-75
2021/07/13 09:26:51;;;;;;;13.83;7.80;;;;;;;46.62;18.14;97238.66;4956292;29;20027;-76
2021/07/13 09:29:48;;;;;;;15.07;8.55;;;;;;;47.47;17.33;97245.31;4947119;29;20707;-76
2021/07/13 09:32:35;;;;;;;14.20;7.97;;;;;;;47.79;17.91;97251.16;4947541;29;20542;-76
2021/07/13 09:35:03;;;;;;;18.17;8.60;;;;;;;47.54;17.42;97239.94;4953979;28;20042;-76
2021/07/13 09:37:34;;;;;;;26.27;16.00;;;;;;;45.53;18.28;97236.97;4971169;28;20569;-75
2021/07/13 09:40:14;;;;;;;12.10;7.57;;;;;;;46.51;18.60;97243.00;4970804;28;20027;-75
2021/07/13 09:42:50;;;;;;;19.80;7.53;;;;;;;46.78;18.10;97239.81;4971037;28;20035;-75
2021/07/13 09:45:31;;;;;;;13.30;7.00;;;;;;;45.90;17.38;97235.59;4954563;28;20400;-75
2021/07/13 09:47:58;;;;;;;12.30;7.10;;;;;;;45.92;17.06;97221.94;4953950;28;20041;-75
2021/07/13 09:50:39;;;;;;;84.95;13.32;;;;;;;47.32;17.63;97236.19;4922759;29;20031;-76
2021/07/13 09:53:11;;;;;;;12.40;8.13;;;;;;;48.65;16.64;97242.06;4970222;28;20038;-77
2021/07/13 09:55:39;;;;;;;12.65;7.07;;;;;;;49.35;14.83;97235.31;4954386;29;20023;-76
2021/07/13 09:58:22;;;;;;;10.60;6.95;;;;;;;48.65;15.22;97230.72;4954154;29;20042;-76
2021/07/13 10:00:59;;;;;;;11.82;7.95;;;;;;;47.65;16.68;97229.91;4954336;29;20031;-74
2021/07/13 10:03:27;;;;;;;11.25;7.70;;;;;;;44.38;18.94;97219.13;4953675;29;20027;-76
2021/07/13 10:05:54;;;;;;;11.32;7.45;;;;;;;44.22;20.12;97230.78;4954003;29;20020;-75
2021/07/13 10:08:21;;;;;;;10.82;7.68;;;;;;;45.28;18.69;97224.38;4953316;28;20031;-76
2021/07/13 10:10:48;;;;;;;8.15;6.78;;;;;;;46.93;16.93;97230.78;4985954;28;20023;-75
2021/07/13 10:13:15;;;;;;;10.40;7.78;;;;;;;47.45;17.61;97219.28;4970050;28;20023;-75
2021/07/13 10:15:42;;;;;;;9.68;7.40;;;;;;;47.81;16.78;97233.81;4970453;28;20027;-74
2021/07/13 10:18:08;;;;;;;16.02;7.25;;;;;;;47.45;16.61;97219.28;4953818;28;20042;-75
2021/07/13 10:20:35;;;;;;;8.95;6.93;;;;;;;47.73;16.56;97220.50;4954114;28;20487;-74
2021/07/13 10:23:04;;;;;;;8.35;7.13;;;;;;;45.04;18.63;97204.16;4953641;28;20406;-75
2021/07/13 10:25:40;;;;;;;14.07;7.47;;;;;;;45.59;19.26;97201.72;4970178;28;20058;-74
2021/07/13 10:28:06;;;;;;;10.18;7.13;;;;;;;46.57;18.46;97216.19;4969802;28;20031;-77
2021/07/13 10:30:33;;;;;;;9.77;6.57;;;;;;;47.60;17.41;97221.56;4970144;28;20031;-75
2021/07/13 10:32:58;;;;;;;8.50;6.93;;;;;;;48.41;17.46;97216.38;4953615;29;20031;-75
2021/07/13 10:35:33;;;;;;;15.23;6.65;;;;;;;47.76;16.99;97205.63;4969652;28;20415;-75
2021/07/13 10:38:14;;;;;;;12.48;6.57;;;;;;;47.02;17.65;97216.59;4953717;29;20057;-76
2021/07/13 10:40:40;;;;;;;11.85;6.40;;;;;;;47.43;16.72;97198.94;4970015;28;20082;-77
2021/07/13 10:43:15;;;;;;;9.75;6.30;;;;;;;47.94;17.01;97198.69;4953512;29;20040;-75
2021/07/13 10:45:42;;;;;;;11.27;6.13;;;;;;;48.25;15.72;97193.44;4969759;28;20035;-75
2021/07/13 10:48:20;;;;;;;12.93;7.05;;;;;;;47.16;17.88;97203.91;4953061;28;20510;-76
2021/07/13 10:50:53;;;;;;;7.78;6.85;;;;;;;47.12;17.02;97194.41;4953565;29;20102;-73
2021/07/13 10:53:29;;;;;;;11.98;6.20;;;;;;;45.65;17.36;97186.25;4969337;28;20396;-75
2021/07/13 10:56:08;;;;;;;12.57;6.10;;;;;;;46.09;18.23;97197.34;4969448;28;20487;-76
2021/07/13 10:58:39;;;;;;;7.10;6.40;;;;;;;46.87;17.40;97192.47;4953121;29;20518;-76
2021/07/13 11:01:13;;;;;;;7.00;6.30;;;;;;;48.89;16.11;97187.31;4968771;28;20035;-75
2021/07/13 11:03:38;;;;;;;6.45;5.85;;;;;;;49.44;14.64;97180.34;4969294;28;20034;-76
2021/07/13 11:06:12;;;;;;;9.63;6.13;;;;;;;49.31;15.07;97180.34;4969098;28;20474;-76
2021/07/13 11:08:40;;;;;;;11.55;6.13;;;;;;;47.61;15.38;97169.34;4949415;29;20038;-75
2021/07/13 11:11:06;;;;;;;6.85;6.20;;;;;;;45.95;16.72;97171.19;4954068;28;20090;-77
2021/07/13 11:13:32;;;;;;;8.43;6.20;;;;;;;45.75;17.06;97168.97;4950903;28;20492;-74
2021/07/13 11:15:57;;;;;;;6.60;5.80;;;;;;;45.96;17.62;97166.38;4920246;29;20110;-74
2021/07/13 11:18:27;;;;;;;7.32;6.10;;;;;;;47.51;15.88;97179.06;4953861;29;20035;-75
2021/07/13 11:20:53;;;;;;;9.60;6.00;;;;;;;47.55;15.98;97176.38;4952962;28;20098;-74
2021/07/13 11:23:28;;;;;;;10.65;5.90;;;;;;;48.35;15.96;97181.69;4952672;29;20040;-75
2021/07/13 11:26:04;;;;;;;11.30;5.72;;;;;;;49.03;14.80;97179.34;4952807;29;20042;-76